createdAt,value
2023-08-31T00:02:25.599Z,5.19
2023-08-31T00:04:57.050Z,5.16
2023-08-31T00:07:24.893Z,4.91
2023-08-31T00:09:52.936Z,4.82
2023-08-31T00:12:20.761Z,4.90
2023-08-31T00:14:50.683Z,4.74
2023-08-31T00:17:19.181Z,4.97
2023-08-31T00:19:46.973Z,5.03
2023-08-31T00:22:14.791Z,5.05
2023-08-31T00:24:43.598Z,5.08
2023-08-31T00:27:11.660Z,5.08
2023-08-31T00:29:40.035Z,4.33
2023-08-31T00:32:09.297Z,4.58
2023-08-31T00:34:37.104Z,4.72
2023-08-31T00:37:05.399Z,4.55
2023-08-31T00:39:34.673Z,4.58
2023-08-31T00:42:04.459Z,4.58
2023-08-31T00:44:34.564Z,4.67
2023-08-31T00:47:03.998Z,4.25
2023-08-31T00:49:31.923Z,4.46
2023-08-31T00:52:00.298Z,4.40
2023-08-31T00:54:28.326Z,4.12
2023-08-31T00:56:57.261Z,3.88
2023-08-31T00:59:25.464Z,3.70
2023-08-31T01:02:24.470Z,3.63
2023-08-31T01:05:04.359Z,3.62
2023-08-31T01:07:35.277Z,3.40
2023-08-31T01:10:40.667Z,3.44
2023-08-31T01:13:20.541Z,3.45
2023-08-31T01:16:01.166Z,3.20
2023-08-31T01:18:37.024Z,3.15
2023-08-31T01:21:20.628Z,3.12
2023-08-31T01:23:59.711Z,3.14
2023-08-31T01:26:28.912Z,3.04
2023-08-31T01:28:57.950Z,3.15
2023-08-31T01:31:25.759Z,2.95
2023-08-31T01:33:53.530Z,3.13
2023-08-31T01:36:34.140Z,3.26
2023-08-31T01:39:14.286Z,3.49
2023-08-31T01:41:47.489Z,3.13
2023-08-31T01:44:19.896Z,3.37
2023-08-31T01:46:53.109Z,3.41
2023-08-31T01:49:24.449Z,3.40
2023-08-31T01:51:52.198Z,3.55
2023-08-31T01:54:19.912Z,3.50
2023-08-31T01:56:47.890Z,3.60
2023-08-31T01:59:15.716Z,3.94
2023-08-31T02:01:43.606Z,4.04
2023-08-31T02:04:11.348Z,3.72
2023-08-31T02:06:39.163Z,3.99
2023-08-31T02:09:09.097Z,3.87
2023-08-31T02:11:39.235Z,4.11
2023-08-31T02:14:07.221Z,3.97
2023-08-31T02:16:35.836Z,3.96
2023-08-31T02:19:03.849Z,3.73
2023-08-31T02:21:31.937Z,3.94
2023-08-31T02:23:59.861Z,3.75
2023-08-31T02:26:27.570Z,3.59
2023-08-31T02:28:55.390Z,3.75
2023-08-31T02:31:23.357Z,3.93
2023-08-31T02:33:51.202Z,4.07
2023-08-31T02:36:21.529Z,3.69
2023-08-31T02:38:51.013Z,3.64
2023-08-31T02:41:19.095Z,3.90
2023-08-31T02:43:47.168Z,3.58
2023-08-31T02:46:15.303Z,3.80
2023-08-31T02:48:43.147Z,4.19
2023-08-31T02:51:11.029Z,4.07
2023-08-31T02:53:39.221Z,4.13
2023-08-31T02:56:07.091Z,4.44
2023-08-31T02:58:35.752Z,4.39
2023-08-31T03:01:14.144Z,4.72
2023-08-31T03:03:47.230Z,4.20
2023-08-31T03:06:16.600Z,4.43
2023-08-31T03:08:44.726Z,4.65
2023-08-31T03:11:13.118Z,4.35
2023-08-31T03:13:41.122Z,4.60
2023-08-31T03:16:09.335Z,4.60
2023-08-31T03:18:37.101Z,4.66
2023-08-31T03:21:05.489Z,4.55
2023-08-31T03:23:33.456Z,4.63
2023-08-31T03:26:01.409Z,4.55
2023-08-31T03:28:30.080Z,4.89
2023-08-31T03:30:58.358Z,4.53
2023-08-31T03:33:26.311Z,4.78
2023-08-31T03:35:55.251Z,4.47
2023-08-31T03:38:23.070Z,4.43
2023-08-31T03:40:58.779Z,4.60
2023-08-31T03:43:26.696Z,4.40
2023-08-31T03:45:58.496Z,4.41
2023-08-31T03:48:27.280Z,4.61
2023-08-31T03:50:56.240Z,4.37
2023-08-31T03:53:24.925Z,4.15
2023-08-31T03:55:57.101Z,4.49
2023-08-31T03:58:26.028Z,4.23
2023-08-31T04:00:55.684Z,4.06
2023-08-31T04:03:25.465Z,4.16
2023-08-31T04:05:57.420Z,4.17
2023-08-31T04:08:25.387Z,4.20
2023-08-31T04:10:53.211Z,4.12
2023-08-31T04:13:22.609Z,4.21
2023-08-31T04:15:50.439Z,4.19
2023-08-31T04:18:18.671Z,4.23
2023-08-31T04:20:54.192Z,4.10
2023-08-31T04:23:22.388Z,4.24
2023-08-31T04:25:52.752Z,4.12
2023-08-31T04:28:20.748Z,4.25
2023-08-31T04:30:48.554Z,4.27
2023-08-31T04:33:16.424Z,4.29
2023-08-31T04:35:44.450Z,4.41
2023-08-31T04:38:12.524Z,4.18
2023-08-31T04:40:40.323Z,4.43
2023-08-31T04:43:08.127Z,3.93
2023-08-31T04:45:36.200Z,4.12
2023-08-31T04:48:04.655Z,4.02
2023-08-31T04:50:32.647Z,3.92
2023-08-31T04:53:00.613Z,4.34
2023-08-31T04:55:28.486Z,4.08
2023-08-31T04:57:57.981Z,4.10
2023-08-31T05:00:25.815Z,4.29
2023-08-31T05:02:53.661Z,3.90
2023-08-31T05:05:21.582Z,4.10
2023-08-31T05:07:49.532Z,3.88
2023-08-31T05:10:18.283Z,4.25
2023-08-31T05:12:46.798Z,4.07
2023-08-31T05:15:14.996Z,4.01
2023-08-31T05:17:42.804Z,4.08
2023-08-31T05:20:11.410Z,3.96
2023-08-31T05:22:39.253Z,4.07
2023-08-31T05:25:07.394Z,3.91
2023-08-31T05:27:35.359Z,4.01
2023-08-31T05:30:03.791Z,4.06
2023-08-31T05:32:31.812Z,4.16
2023-08-31T05:35:00.648Z,4.06
2023-08-31T05:37:33.186Z,3.88
2023-08-31T05:40:00.984Z,3.99
2023-08-31T05:42:29.427Z,3.91
2023-08-31T05:44:57.381Z,3.99
2023-08-31T05:47:28.008Z,4.01
2023-08-31T05:49:55.791Z,3.94
2023-08-31T05:52:24.100Z,4.02
2023-08-31T05:54:53.288Z,3.87
2023-08-31T05:57:24.726Z,3.76
2023-08-31T05:59:52.542Z,3.76
2023-08-31T06:02:20.663Z,3.91
2023-08-31T06:04:48.643Z,3.74
2023-08-31T06:07:16.446Z,3.78
2023-08-31T06:09:47.022Z,3.68
2023-08-31T06:12:14.880Z,3.42
2023-08-31T06:14:42.686Z,3.29
2023-08-31T06:17:12.819Z,3.36
2023-08-31T06:19:41.376Z,3.40
2023-08-31T06:22:09.740Z,3.30
2023-08-31T06:24:38.208Z,3.21
2023-08-31T06:27:06.393Z,3.18
2023-08-31T06:29:34.399Z,3.15
2023-08-31T06:32:02.420Z,3.40
2023-08-31T06:34:32.278Z,3.20
2023-08-31T06:37:00.516Z,3.10
2023-08-31T06:39:28.329Z,3.35
2023-08-31T06:41:56.423Z,3.16
2023-08-31T06:44:32.671Z,3.03
2023-08-31T06:47:00.608Z,2.91
2023-08-31T06:49:28.773Z,3.14
2023-08-31T06:51:56.631Z,2.90
2023-08-31T06:54:24.767Z,2.89
2023-08-31T06:56:52.646Z,2.96
2023-08-31T06:59:20.551Z,3.09
2023-08-31T07:01:48.596Z,2.80
2023-08-31T07:04:16.579Z,2.66
2023-08-31T07:06:44.579Z,2.53
2023-08-31T07:09:12.726Z,2.70
2023-08-31T07:11:40.697Z,2.97
2023-08-31T07:14:08.728Z,2.90
2023-08-31T07:16:36.657Z,2.83
2023-08-31T07:19:05.255Z,2.72
2023-08-31T07:21:33.590Z,2.52
2023-08-31T07:24:02.553Z,2.84
2023-08-31T07:26:30.753Z,2.73
2023-08-31T07:29:01.136Z,2.63
2023-08-31T07:31:30.742Z,2.30
2023-08-31T07:33:58.961Z,2.45
2023-08-31T07:36:27.601Z,2.58
2023-08-31T07:38:55.535Z,2.79
2023-08-31T07:41:23.460Z,2.68
2023-08-31T07:44:02.221Z,2.85
2023-08-31T07:46:32.775Z,3.02
2023-08-31T07:49:00.982Z,2.94
2023-08-31T07:51:28.783Z,2.99
2023-08-31T07:53:56.798Z,3.01
2023-08-31T07:56:25.257Z,2.87
2023-08-31T07:58:53.080Z,2.73
2023-08-31T08:01:21.090Z,2.92
2023-08-31T08:03:48.873Z,3.07
2023-08-31T08:06:16.773Z,3.32
2023-08-31T08:08:44.928Z,3.41
2023-08-31T08:11:12.893Z,3.76
2023-08-31T08:13:40.674Z,3.45
2023-08-31T08:16:10.446Z,3.16
2023-08-31T08:18:38.440Z,3.38
2023-08-31T08:21:06.504Z,3.48
2023-08-31T08:23:35.167Z,3.51
2023-08-31T08:26:03.453Z,3.51
2023-08-31T08:28:31.452Z,3.69
2023-08-31T08:31:01.859Z,3.65
2023-08-31T08:33:32.436Z,3.56
2023-08-31T08:36:00.687Z,3.86
2023-08-31T08:38:28.531Z,3.57
2023-08-31T08:40:56.433Z,3.62
2023-08-31T08:43:28.809Z,3.83
2023-08-31T08:45:59.718Z,3.53
2023-08-31T08:48:28.071Z,3.53
2023-08-31T08:50:57.386Z,3.56
2023-08-31T08:53:25.374Z,3.26
2023-08-31T08:55:53.631Z,3.47
2023-08-31T08:58:21.583Z,3.73
2023-08-31T09:00:50.508Z,3.33
2023-08-31T09:03:20.205Z,3.24
2023-08-31T09:05:48.395Z,3.36
2023-08-31T09:08:19.474Z,3.56
2023-08-31T09:10:47.710Z,3.58
2023-08-31T09:13:19.854Z,3.56
2023-08-31T09:15:51.696Z,3.48
2023-08-31T09:18:28.260Z,3.51
2023-08-31T09:20:58.224Z,3.52
2023-08-31T09:23:27.158Z,3.64
2023-08-31T09:25:56.840Z,3.40
2023-08-31T09:28:30.694Z,3.40
2023-08-31T09:31:09.985Z,3.94
2023-08-31T09:33:39.123Z,3.78
2023-08-31T09:36:09.358Z,4.12
2023-08-31T09:38:46.814Z,4.20
2023-08-31T09:41:16.351Z,4.24
2023-08-31T09:43:44.654Z,3.97
2023-08-31T09:46:14.565Z,4.11
2023-08-31T09:48:44.586Z,3.98
2023-08-31T09:51:15.037Z,4.28
2023-08-31T09:53:46.916Z,4.19
2023-08-31T09:56:22.069Z,3.66
2023-08-31T09:58:50.902Z,3.62
2023-08-31T10:01:28.940Z,3.05
2023-08-31T10:04:00.516Z,3.17
2023-08-31T10:06:30.042Z,3.58
2023-08-31T10:08:58.174Z,3.55
2023-08-31T10:11:30.720Z,3.48
2023-08-31T10:13:59.956Z,3.36
2023-08-31T10:16:28.640Z,3.08
2023-08-31T10:18:57.687Z,3.00
2023-08-31T10:21:26.587Z,3.25
2023-08-31T10:23:54.821Z,3.39
2023-08-31T10:26:28.613Z,3.23
2023-08-31T10:28:58.107Z,3.26
2023-08-31T10:31:30.787Z,3.33
2023-08-31T10:34:11.665Z,3.30
2023-08-31T10:36:51.125Z,3.66
2023-08-31T10:39:23.487Z,3.46
2023-08-31T10:41:56.911Z,3.73
2023-08-31T10:44:31.500Z,3.46
2023-08-31T10:47:05.124Z,3.40
2023-08-31T10:49:34.236Z,3.40
2023-08-31T10:52:32.594Z,3.50
2023-08-31T10:55:08.978Z,3.53
2023-08-31T10:57:37.727Z,3.77
2023-08-31T11:00:06.440Z,3.87
2023-08-31T11:02:41.907Z,3.30
2023-08-31T11:05:23.552Z,3.45
2023-08-31T11:07:58.070Z,3.31
2023-08-31T11:10:30.708Z,3.47
2023-08-31T11:12:59.450Z,3.80
2023-08-31T11:15:28.573Z,3.80
2023-08-31T11:17:57.853Z,3.94
2023-08-31T11:20:30.137Z,3.87
2023-08-31T11:22:58.442Z,4.19
2023-08-31T11:25:26.899Z,4.34
2023-08-31T11:28:07.429Z,4.30
2023-08-31T11:30:36.138Z,4.27
2023-08-31T11:33:08.986Z,4.28
2023-08-31T11:35:44.956Z,4.82
2023-08-31T11:38:13.626Z,4.21
2023-08-31T11:40:42.287Z,4.53
2023-08-31T11:43:10.776Z,3.97
2023-08-31T11:45:40.911Z,3.76
2023-08-31T11:48:10.601Z,3.71
2023-08-31T11:50:41.099Z,3.70
2023-08-31T11:53:09.233Z,3.48
2023-08-31T11:55:37.160Z,3.83
2023-08-31T11:58:10.521Z,3.92
2023-08-31T12:00:38.415Z,4.52
2023-08-31T12:03:09.880Z,4.30
2023-08-31T12:05:48.677Z,4.51
2023-08-31T12:08:19.570Z,4.27
2023-08-31T12:10:48.306Z,4.18
2023-08-31T12:13:16.442Z,4.21
2023-08-31T12:15:44.626Z,4.47
2023-08-31T12:18:14.330Z,4.19
2023-08-31T12:20:54.751Z,4.29
2023-08-31T12:23:23.404Z,4.13
2023-08-31T12:25:52.666Z,4.25
2023-08-31T12:28:22.058Z,3.94
2023-08-31T12:30:51.499Z,3.86
2023-08-31T12:33:20.679Z,3.79
2023-08-31T12:35:49.430Z,3.32
2023-08-31T12:38:17.633Z,3.46
2023-08-31T12:40:45.475Z,3.16
2023-08-31T12:43:13.700Z,3.05
2023-08-31T12:45:42.127Z,3.57
2023-08-31T12:48:10.067Z,3.55
2023-08-31T12:50:38.378Z,3.60
2023-08-31T12:53:06.183Z,3.45
2023-08-31T12:55:34.070Z,3.40
2023-08-31T12:58:02.152Z,3.81
2023-08-31T13:00:30.445Z,3.33
2023-08-31T13:02:58.375Z,3.30
2023-08-31T13:05:27.209Z,3.57
2023-08-31T13:07:55.033Z,3.40
2023-08-31T13:10:22.926Z,3.35
2023-08-31T13:12:51.001Z,3.44
2023-08-31T13:15:18.877Z,3.03
2023-08-31T13:17:46.765Z,2.95
2023-08-31T13:20:14.824Z,3.01
2023-08-31T13:22:42.707Z,2.57
2023-08-31T13:25:12.520Z,2.45
2023-08-31T13:27:40.496Z,2.37
2023-08-31T13:30:10.296Z,2.67
2023-08-31T13:32:38.134Z,2.54
2023-08-31T13:35:09.831Z,2.53
2023-08-31T13:37:37.660Z,2.09
2023-08-31T13:40:08.987Z,2.14
2023-08-31T13:42:40.673Z,2.23
2023-08-31T13:45:11.459Z,2.55
2023-08-31T13:47:39.227Z,2.45
2023-08-31T13:50:08.384Z,2.87
2023-08-31T13:52:36.130Z,2.22
2023-08-31T13:55:04.343Z,2.06
2023-08-31T13:57:32.222Z,1.97
2023-08-31T14:00:01.238Z,2.37
2023-08-31T14:02:29.369Z,1.99
2023-08-31T14:04:57.380Z,2.21
2023-08-31T14:07:25.393Z,1.99
2023-08-31T14:09:53.274Z,2.20
2023-08-31T14:12:22.690Z,2.12
2023-08-31T14:14:50.488Z,2.31
2023-08-31T14:17:18.453Z,2.34
2023-08-31T14:19:46.447Z,2.11
2023-08-31T14:22:14.291Z,2.06
2023-08-31T14:24:42.288Z,2.24
2023-08-31T14:27:10.087Z,2.51
2023-08-31T14:29:39.142Z,2.29
2023-08-31T14:32:06.995Z,2.20
2023-08-31T14:34:35.194Z,2.08
2023-08-31T14:37:03.518Z,2.42
2023-08-31T14:39:31.614Z,2.42
2023-08-31T14:41:59.727Z,2.30
2023-08-31T14:44:27.674Z,2.26
2023-08-31T14:46:55.446Z,2.24
2023-08-31T14:49:26.374Z,2.34
2023-08-31T14:51:54.331Z,2.27
2023-08-31T14:54:23.430Z,2.40
2023-08-31T14:56:52.174Z,2.50
2023-08-31T14:59:20.121Z,2.58
2023-08-31T15:01:47.935Z,2.31
2023-08-31T15:04:15.924Z,2.53
2023-08-31T15:06:43.881Z,2.82
2023-08-31T15:09:11.831Z,2.68
2023-08-31T15:11:40.593Z,2.71
2023-08-31T15:14:08.794Z,2.92
2023-08-31T15:16:36.982Z,2.75
2023-08-31T15:19:05.075Z,2.44
2023-08-31T15:21:32.927Z,2.49
2023-08-31T15:24:00.700Z,2.64
2023-08-31T15:26:28.557Z,2.68
2023-08-31T15:28:56.406Z,2.92
2023-08-31T15:31:24.288Z,2.73
2023-08-31T15:33:52.181Z,2.93
2023-08-31T15:36:20.068Z,2.81
2023-08-31T15:38:47.815Z,2.83
2023-08-31T15:41:16.358Z,2.65
2023-08-31T15:43:44.567Z,2.66
2023-08-31T15:46:12.328Z,2.84
2023-08-31T15:48:40.123Z,2.58
2023-08-31T15:51:07.858Z,2.61
2023-08-31T15:53:35.749Z,2.64
2023-08-31T15:56:05.191Z,2.88
2023-08-31T15:58:33.037Z,2.74
2023-08-31T16:01:04.204Z,2.74
2023-08-31T16:03:33.756Z,2.71
2023-08-31T16:06:01.653Z,2.88
2023-08-31T16:08:30.064Z,2.67
2023-08-31T16:10:58.561Z,2.59
2023-08-31T16:13:26.435Z,2.77
2023-08-31T16:15:54.226Z,2.99
2023-08-31T16:18:21.965Z,2.81
2023-08-31T16:20:49.774Z,2.73
2023-08-31T16:23:17.601Z,2.69
2023-08-31T16:25:45.401Z,2.75
2023-08-31T16:28:13.423Z,3.00
2023-08-31T16:30:41.887Z,3.00
2023-08-31T16:33:09.685Z,3.24
2023-08-31T16:35:37.617Z,3.00
2023-08-31T16:38:05.596Z,2.82
2023-08-31T16:40:33.420Z,2.77
2023-08-31T16:43:01.209Z,2.88
2023-08-31T16:45:29.866Z,2.66
2023-08-31T16:47:57.667Z,2.65
2023-08-31T16:50:36.825Z,2.93
2023-08-31T16:53:05.662Z,3.09
2023-08-31T16:55:34.521Z,3.07
2023-08-31T16:58:04.016Z,2.89
2023-08-31T17:00:31.962Z,2.99
2023-08-31T17:02:59.977Z,3.00
2023-08-31T17:05:33.667Z,2.87
2023-08-31T17:08:01.517Z,2.94
2023-08-31T17:10:29.318Z,2.74
2023-08-31T17:12:57.696Z,3.36
2023-08-31T17:15:25.442Z,2.86
2023-08-31T17:17:55.353Z,2.89
2023-08-31T17:20:23.487Z,3.13
2023-08-31T17:22:51.255Z,3.17
2023-08-31T17:25:19.141Z,2.82
2023-08-31T17:27:47.014Z,3.06
2023-08-31T17:30:14.851Z,2.98
2023-08-31T17:32:42.800Z,2.82
2023-08-31T17:35:10.785Z,3.05
2023-08-31T17:37:39.522Z,2.79
2023-08-31T17:40:08.717Z,2.95
2023-08-31T17:42:42.151Z,3.09
2023-08-31T17:45:10.952Z,3.13
2023-08-31T17:47:38.914Z,3.24
2023-08-31T17:50:07.052Z,3.01
2023-08-31T17:52:35.542Z,3.11
2023-08-31T17:55:04.771Z,3.03
2023-08-31T17:57:33.357Z,3.01
2023-08-31T18:00:01.859Z,3.11
2023-08-31T18:02:32.587Z,3.03
2023-08-31T18:05:00.608Z,2.92
2023-08-31T18:07:28.313Z,3.12
2023-08-31T18:09:56.139Z,3.11
2023-08-31T18:12:23.942Z,3.22
2023-08-31T18:14:51.701Z,2.86
2023-08-31T18:17:19.468Z,3.13
2023-08-31T18:19:47.273Z,3.38
2023-08-31T18:22:16.023Z,3.18
2023-08-31T18:24:43.836Z,3.17
2023-08-31T18:27:14.709Z,3.24
2023-08-31T18:29:42.630Z,2.88
2023-08-31T18:32:10.515Z,2.80
2023-08-31T18:34:40.729Z,3.07
2023-08-31T18:37:08.436Z,3.41
2023-08-31T18:39:36.145Z,3.18
2023-08-31T18:42:04.525Z,3.01
2023-08-31T18:44:32.680Z,2.95
2023-08-31T18:47:00.401Z,3.17
2023-08-31T18:49:28.160Z,3.25
2023-08-31T18:51:55.890Z,3.62
2023-08-31T18:54:24.004Z,3.42
2023-08-31T18:56:51.778Z,3.43
2023-08-31T18:59:19.580Z,3.50
2023-08-31T19:01:49.428Z,3.32
2023-08-31T19:04:18.915Z,3.86
2023-08-31T19:06:46.721Z,3.29
2023-08-31T19:09:14.558Z,3.42
2023-08-31T19:11:42.316Z,3.85
2023-08-31T19:14:10.096Z,3.69
2023-08-31T19:16:39.205Z,3.57
2023-08-31T19:19:07.129Z,3.39
2023-08-31T19:21:34.945Z,3.66
2023-08-31T19:24:04.269Z,3.98
2023-08-31T19:26:32.733Z,3.79
2023-08-31T19:29:00.817Z,3.46
2023-08-31T19:31:31.152Z,3.87
2023-08-31T19:34:00.241Z,3.77
2023-08-31T19:36:28.025Z,3.65
2023-08-31T19:38:58.223Z,4.10
2023-08-31T19:41:26.393Z,4.58
2023-08-31T19:43:54.233Z,4.97
2023-08-31T19:46:22.126Z,4.94
2023-08-31T19:48:50.117Z,5.40
2023-08-31T19:51:18.029Z,4.98
2023-08-31T19:53:45.911Z,4.39
2023-08-31T19:56:14.498Z,4.07
2023-08-31T19:58:42.263Z,4.10
2023-08-31T20:01:10.242Z,4.33
2023-08-31T20:03:39.707Z,3.97
2023-08-31T20:06:08.652Z,3.80
2023-08-31T20:08:38.350Z,4.05
2023-08-31T20:11:06.450Z,3.91
2023-08-31T20:13:34.430Z,3.96
2023-08-31T20:16:04.580Z,4.38
2023-08-31T20:18:32.904Z,4.12
2023-08-31T20:21:00.720Z,3.89
2023-08-31T20:23:28.680Z,4.12
2023-08-31T20:25:57.360Z,4.36
2023-08-31T20:28:25.380Z,4.10
2023-08-31T20:30:53.250Z,4.04
2023-08-31T20:33:21.076Z,3.80
2023-08-31T20:35:50.158Z,3.77
2023-08-31T20:38:18.166Z,3.81
2023-08-31T20:40:46.400Z,4.17
2023-08-31T20:43:14.191Z,3.87
2023-08-31T20:45:42.997Z,3.89
2023-08-31T20:48:12.935Z,3.97
2023-08-31T20:50:40.811Z,3.93
2023-08-31T20:53:08.663Z,4.15
2023-08-31T20:55:36.442Z,3.76
2023-08-31T20:58:04.567Z,4.17
2023-08-31T21:00:32.480Z,4.11
2023-08-31T21:03:00.544Z,4.63
2023-08-31T21:05:28.415Z,4.10
2023-08-31T21:07:56.590Z,4.16
2023-08-31T21:10:24.384Z,4.91
2023-08-31T21:12:52.112Z,4.84
2023-08-31T21:15:20.002Z,4.69
2023-08-31T21:17:48.089Z,4.92
2023-08-31T21:20:16.014Z,5.10
2023-08-31T21:22:43.732Z,4.75
2023-08-31T21:25:11.538Z,4.54
2023-08-31T21:27:39.247Z,4.32
2023-08-31T21:30:07.897Z,4.52
2023-08-31T21:32:35.722Z,4.39
2023-08-31T21:35:05.103Z,4.30
2023-08-31T21:37:33.029Z,4.20
2023-08-31T21:40:01.467Z,4.35
2023-08-31T21:42:30.024Z,4.47
2023-08-31T21:45:00.073Z,4.52
2023-08-31T21:47:28.397Z,4.24
2023-08-31T21:49:56.278Z,4.14
2023-08-31T21:52:24.004Z,4.41
2023-08-31T21:54:51.790Z,4.20
2023-08-31T21:57:19.464Z,4.42
2023-08-31T21:59:47.198Z,4.43
2023-08-31T22:02:15.275Z,4.24
2023-08-31T22:04:43.114Z,4.37
2023-08-31T22:07:11.160Z,4.26
2023-08-31T22:09:41.066Z,4.13
2023-08-31T22:12:09.080Z,4.53
2023-08-31T22:14:37.008Z,4.43
2023-08-31T22:17:05.478Z,4.29
2023-08-31T22:19:33.528Z,4.10
2023-08-31T22:22:01.526Z,4.39
2023-08-31T22:24:29.271Z,4.35
2023-08-31T22:26:58.143Z,4.10
2023-08-31T22:29:26.078Z,4.20
2023-08-31T22:31:53.841Z,3.83
2023-08-31T22:34:21.629Z,4.16
2023-08-31T22:36:49.479Z,4.20
2023-08-31T22:39:17.328Z,4.00
2023-08-31T22:41:47.484Z,4.18
2023-08-31T22:44:15.747Z,4.10
2023-08-31T22:46:43.523Z,4.22
2023-08-31T22:49:11.708Z,4.04
2023-08-31T22:51:39.787Z,4.17
2023-08-31T22:54:07.535Z,4.18
2023-08-31T22:56:35.690Z,3.94
2023-08-31T22:59:04.029Z,4.14
2023-08-31T23:01:32.217Z,4.44
2023-08-31T23:04:00.386Z,4.48
2023-08-31T23:06:28.875Z,4.55
2023-08-31T23:08:56.875Z,4.24
2023-08-31T23:11:24.697Z,4.40
2023-08-31T23:13:52.496Z,4.43
2023-08-31T23:16:20.258Z,4.05
2023-08-31T23:18:48.087Z,4.35
2023-08-31T23:21:18.069Z,4.70
2023-08-31T23:23:49.260Z,4.58
2023-08-31T23:26:16.947Z,4.23
2023-08-31T23:28:45.349Z,4.23
2023-08-31T23:31:13.180Z,4.36
2023-08-31T23:33:40.968Z,3.99
2023-08-31T23:36:08.734Z,4.45
2023-08-31T23:38:36.488Z,4.04
2023-08-31T23:41:04.581Z,3.97
2023-08-31T23:43:32.710Z,4.12
2023-08-31T23:46:03.192Z,4.37
2023-08-31T23:48:31.215Z,3.83
2023-08-31T23:50:58.986Z,3.86
2023-08-31T23:53:26.746Z,3.84
2023-08-31T23:55:55.569Z,3.55
2023-08-31T23:58:23.438Z,3.83
